Tunnel, New York
Current Conditions -  °F | °C
As of 6:53 PM on Saturday 25 Oct 2014 (Local Time) from KBGM Reporting Station
Light Rain Light Rain  
Wind Chill: 59°   Ceiling: 8000
Heat Index: 59°   Visibility: 10mi
Dew Point: 46°   Wind: 17mph
Humidity: 62%   Direction: 250°WSW
Pressure: 29.58"   Gusts: 28mph
Location:  42.22°N, 75.73°W
Report Text: KBGM 252253Z 25015G24KT 10SM -RA SCT065 BKN080 OVC100 15/08 A2958 RMK AO2 RAB49 SLP017 P0000 T01500078
Loading
Personal Weather Stations






























Interactive Weather Map
Tropical Storm Tracking
New forecast layout! Learn more

10-Day Weather Forecast

Advertisements
Track Severe Weather on mobile